John H. — WAC6768 — position and weather

sailwx.info

Track history (hours):
 
Tides and Currents Weather Stations Pressure Air Temp Water Temp Dewpoint Dewpoint Depression Visibility Wind Speed Wind Dir Waves Ship Positions

John H.

Owner: CROSS SOUND FERRY SERVICE INC, NEW LOUDON, CT. More information available from US FCC via Universal Licensing System and Coast Guard Vessel Documentation Center.

Last reported at 2014-Oct-01 21:34 UTC. Time now 2014-Oct-01 22:20 UTC.
Position N 41°16' W 072°08'.

Length 70 m.

Type: Passenger vessel. MMSI: 366934890.

Date/timePositionNaut miles runAvg speedWind from/ knotsBaromVisibWave heightAir tempDewpointWater temp
2014-Oct-01 21:34N 41°16' W 072°08'6 5.9
2014-Oct-01 20:34N 41°21' W 072°06'9 9.2
2014-Oct-01 19:34N 41°13' W 072°10'5 4.8
2014-Oct-01 18:33N 41°09' W 072°14'9 8.7
2014-Oct-01 17:33N 41°16' W 072°07'5 5.4
2014-Oct-01 16:33N 41°21' W 072°06'9 9.0
2014-Oct-01 15:33N 41°13' W 072°10'5 5.0
2014-Oct-01 14:33N 41°09' W 072°14'1211.9
2014-Oct-01 13:33N 41°19' W 072°05'0 0.3
2014-Oct-01 12:33N 41°19' W 072°05'1211.8
2014-Oct-01 11:34N 41°09' W 072°14'0 0.0
2014-Oct-01 00:34N 41°09' W 072°14'8 8.1
2014-Sep-30 23:33N 41°16' W 072°08'6 5.9
2014-Sep-30 22:33N 41°21' W 072°06'9 8.8
2014-Sep-30 21:33N 41°13' W 072°10'5 5.1
2014-Sep-30 20:33N 41°09' W 072°14'1110.8
2014-Sep-30 19:33N 41°18' W 072°06'4 3.6
2014-Sep-30 18:33N 41°21' W 072°05'1010.0
2014-Sep-30 17:34N 41°12' W 072°11'4 3.8
2014-Sep-30 16:33N 41°09' W 072°14'9 8.7
2014-Sep-30 15:34N 41°16' W 072°07'5 5.4
2014-Sep-30 14:34N 41°21' W 072°06'10 9.6
2014-Sep-30 13:34N 41°13' W 072°11'4 4.4
2014-Sep-30 12:34N 41°09' W 072°14'1010.2
2014-Sep-30 11:34N 41°17' W 072°06'4 4.1
2014-Sep-30 10:34N 41°21' W 072°06'0 0.0
2014-Sep-30 00:28N 41°21' W 072°06'9 9.6
2014-Sep-29 23:33N 41°13' W 072°10'5 5.3
2014-Sep-29 22:33N 41°09' W 072°14'9 8.8
2014-Sep-29 21:34N 41°16' W 072°07'5 5.5
2014-Sep-29 20:34N 41°21' W 072°06'10 9.6
2014-Sep-29 19:34N 41°13' W 072°11'4 4.3
2014-Sep-29 18:34N 41°09' W 072°14'1110.5
2014-Sep-29 17:33N 41°18' W 072°06'4 3.8
2014-Sep-29 16:33N 41°21' W 072°06'9 9.3
2014-Sep-29 15:33N 41°13' W 072°11'5 4.7
2014-Sep-29 14:33N 41°09' W 072°14'9 8.8
2014-Sep-29 13:33N 41°16' W 072°07'5 5.4
2014-Sep-29 12:33N 41°21' W 072°06'8 8.4
2014-Sep-29 11:33N 41°13' W 072°09'6 5.7
2014-Sep-29 10:33N 41°09' W 072°14'0 0.0
2014-Sep-29 02:33N 41°09' W 072°14'10 9.7
2014-Sep-29 01:33N 41°17' W 072°06'5 4.6
2014-Sep-29 00:33N 41°21' W 072°06'1110.6
2014-Sep-28 23:34N 41°12' W 072°12'3 3.3
2014-Sep-28 22:33N 41°09' W 072°14'10 9.9
2014-Sep-28 21:34N 41°17' W 072°06'4 4.4
2014-Sep-28 20:33N 41°21' W 072°06'10 9.8
2014-Sep-28 19:34N 41°12' W 072°11'4 4.2
2014-Sep-28 18:33N 41°09' W 072°14'1010.2
2014-Sep-28 17:33N 41°17' W 072°06'4 4.1
2014-Sep-28 16:33N 41°21' W 072°06'10 9.9
2014-Sep-28 15:33N 41°13' W 072°12'4 3.9
2014-Sep-28 14:33N 41°09' W 072°14'9 9.1
2014-Sep-28 13:34N 41°16' W 072°07'5 5.1
2014-Sep-28 12:33N 41°21' W 072°06'8 8.2
2014-Sep-28 11:34N 41°14' W 072°09'6 5.8
2014-Sep-28 10:33N 41°09' W 072°14'0 0.0
2014-Sep-28 02:04N 41°09' W 072°14'4 8.4
2014-Sep-28 01:33N 41°13' W 072°11'10 9.5
2014-Sep-28 00:34N 41°21' W 072°06'8 8.4
2014-Sep-27 23:34N 41°14' W 072°10'6 5.6
2014-Sep-27 22:34N 41°09' W 072°14'9 8.6
2014-Sep-27 21:33N 41°16' W 072°07'5 5.4
2014-Sep-27 20:33N 41°21' W 072°06'9 9.1
2014-Sep-27 19:33N 41°13' W 072°10'5 4.9
2014-Sep-27 18:33N 41°09' W 072°14'9 9.4
2014-Sep-27 17:33N 41°17' W 072°07'5 4.8
2014-Sep-27 16:34N 41°21' W 072°06'9 8.8
2014-Sep-27 15:33N 41°13' W 072°10'5 5.1
2014-Sep-27 14:33N 41°09' W 072°14'8 8.1
2014-Sep-27 13:33N 41°16' W 072°08'6 6.0
2014-Sep-27 12:34N 41°21' W 072°06'9 9.2
2014-Sep-27 11:34N 41°13' W 072°11'5 4.7
2014-Sep-27 10:34N 41°09' W 072°14'0 0.0
2014-Sep-27 02:08N 41°09' W 072°14'4 7.8
2014-Sep-27 01:34N 41°13' W 072°11'9 9.4
2014-Sep-27 00:34N 41°21' W 072°06'9 9.2
2014-Sep-26 23:34N 41°13' W 072°10'5 4.8
2014-Sep-26 22:33N 41°09' W 072°14'8 8.3
2014-Sep-26 21:33N 41°16' W 072°08'6 5.8
2014-Sep-26 20:34N 41°21' W 072°06'9 9.3
2014-Sep-26 19:33N 41°13' W 072°11'5 4.6
2014-Sep-26 18:34N 41°09' W 072°14'9 9.0
2014-Sep-26 17:33N 41°16' W 072°07'5 5.2
2014-Sep-26 16:33N 41°21' W 072°06'9 8.9
2014-Sep-26 15:33N 41°13' W 072°10'5 5.2
2014-Sep-26 14:33N 41°09' W 072°14'9 9.1
2014-Sep-26 13:33N 41°16' W 072°07'5 5.1
2014-Sep-26 12:33N 41°21' W 072°05'10 9.7
2014-Sep-26 11:33N 41°13' W 072°12'4 4.1
2014-Sep-26 10:33N 41°09' W 072°14'0 0.0
2014-Sep-26 01:06N 41°09' W 072°14'2 3.4
2014-Sep-26 00:34N 41°11' W 072°13'1212.0
2014-Sep-25 23:33N 41°21' W 072°05'0 0.1
2014-Sep-25 22:33N 41°21' W 072°06'10 9.7
2014-Sep-25 21:33N 41°13' W 072°11'4 4.2
2014-Sep-25 20:34N 41°09' W 072°14'8 8.1
2014-Sep-25 19:33N 41°16' W 072°08'6 5.9
2014-Sep-25 18:33N 41°21' W 072°06'9 8.6
2014-Sep-25 17:33N 41°13' W 072°10'5 5.4
2014-Sep-25 16:33N 41°09' W 072°14'9 9.0
2014-Sep-25 15:34N 41°16' W 072°07'5 5.2
2014-Sep-25 14:34N 41°21' W 072°06'10 9.7
2014-Sep-25 13:34N 41°13' W 072°12'4 4.2
2014-Sep-25 12:34N 41°09' W 072°14'9 8.8
2014-Sep-25 11:33N 41°16' W 072°07'5 5.3
2014-Sep-25 10:33N 41°21' W 072°06'0 0.0
2014-Sep-25 01:04N 41°21' W 072°06'4 7.9
2014-Sep-25 00:34N 41°17' W 072°06'1010.3
2014-Sep-24 23:33N 41°09' W 072°14'0 0.0
2014-Sep-24 22:33N 41°09' W 072°14'10 9.5
2014-Sep-24 21:33N 41°17' W 072°07'5 4.7
2014-Sep-24 20:33N 41°21' W 072°06'9 8.9
2014-Sep-24 19:33N 41°13' W 072°10'5 5.0
2014-Sep-24 18:33N 41°09' W 072°14'9 8.8
2014-Sep-24 17:33N 41°16' W 072°07'5 5.3
2014-Sep-24 16:33N 41°21' W 072°06'9 9.3
2014-Sep-24 15:33N 41°13' W 072°11'5 4.6
2014-Sep-24 14:33N 41°09' W 072°14'9 9.2
2014-Sep-24 13:33N 41°17' W 072°07'5 4.9
2014-Sep-24 12:33N 41°21' W 072°06'9 9.1
2014-Sep-24 11:33N 41°13' W 072°11'5 4.8
2014-Sep-24 10:33N 41°09' W 072°14'0 0.0
2014-Sep-24 01:05N 41°09' W 072°14'2 3.9
2014-Sep-24 00:34N 41°11' W 072°14'1210.9
2014-Sep-23 23:28N 41°21' W 072°06'0 0.0
2014-Sep-23 22:33N 41°21' W 072°06'0 0.0
2014-Sep-23 01:07N 41°21' W 072°06'4 6.3
2014-Sep-23 00:33N 41°18' W 072°05'1111.1
2014-Sep-22 23:34N 41°09' W 072°14'0 0.1
2014-Sep-22 22:33N 41°09' W 072°14'9 9.3
2014-Sep-22 21:33N 41°16' W 072°07'5 4.9
2014-Sep-22 20:33N 41°21' W 072°06'9 8.9
2014-Sep-22 19:34N 41°13' W 072°10'5 5.1
2014-Sep-22 18:33N 41°09' W 072°14'9 9.5
2014-Sep-22 17:34N 41°16' W 072°06'5 4.9
2014-Sep-22 16:34N 41°21' W 072°06'10 9.8
2014-Sep-22 15:33N 41°13' W 072°11'4 4.0
2014-Sep-22 14:34N 41°09' W 072°14'9 9.0
2014-Sep-22 13:33N 41°16' W 072°07'5 5.2
2014-Sep-22 12:33N 41°21' W 072°06'9 9.0
2014-Sep-22 11:33N 41°13' W 072°10'5 5.0
2014-Sep-22 10:33N 41°09' W 072°14'0 0.0
2014-Sep-22 02:27N 41°09' W 072°14'7 7.4
2014-Sep-22 01:33N 41°15' W 072°09'7 7.3
2014-Sep-22 00:34N 41°21' W 072°06'1010.0
2014-Sep-21 23:33N 41°12' W 072°11'4 3.8
2014-Sep-21 22:33N 41°09' W 072°14'  
Track history (hours):
 
Tides and Currents Weather Stations Pressure Air Temp Water Temp Dewpoint Dewpoint Depression Visibility Wind Speed Wind Dir Waves Ship Positions

John H.

Owner: CROSS SOUND FERRY SERVICE INC, NEW LOUDON, CT. More information available from US FCC via Universal Licensing System and Coast Guard Vessel Documentation Center.

Last reported at 2014-Oct-01 21:34 UTC. Time now 2014-Oct-01 22:20 UTC.
Position N 41°16' W 072°08'.

Length 70 m.

Type: Passenger vessel. MMSI: 366934890.

Date/timePositionNaut miles runAvg speedWind from/ knotsBaromVisibWave heightAir tempDewpointWater temp
2014-Oct-01 21:34N 41°16' W 072°08'6 5.9
2014-Oct-01 20:34N 41°21' W 072°06'9 9.2
2014-Oct-01 19:34N 41°13' W 072°10'5 4.8
2014-Oct-01 18:33N 41°09' W 072°14'9 8.7
2014-Oct-01 17:33N 41°16' W 072°07'5 5.4
2014-Oct-01 16:33N 41°21' W 072°06'9 9.0
2014-Oct-01 15:33N 41°13' W 072°10'5 5.0
2014-Oct-01 14:33N 41°09' W 072°14'1211.9
2014-Oct-01 13:33N 41°19' W 072°05'0 0.3
2014-Oct-01 12:33N 41°19' W 072°05'1211.8
2014-Oct-01 11:34N 41°09' W 072°14'0 0.0
2014-Oct-01 00:34N 41°09' W 072°14'8 8.1
2014-Sep-30 23:33N 41°16' W 072°08'6 5.9
2014-Sep-30 22:33N 41°21' W 072°06'9 8.8
2014-Sep-30 21:33N 41°13' W 072°10'5 5.1
2014-Sep-30 20:33N 41°09' W 072°14'1110.8
2014-Sep-30 19:33N 41°18' W 072°06'4 3.6
2014-Sep-30 18:33N 41°21' W 072°05'1010.0
2014-Sep-30 17:34N 41°12' W 072°11'4 3.8
2014-Sep-30 16:33N 41°09' W 072°14'9 8.7
2014-Sep-30 15:34N 41°16' W 072°07'5 5.4
2014-Sep-30 14:34N 41°21' W 072°06'10 9.6
2014-Sep-30 13:34N 41°13' W 072°11'4 4.4
2014-Sep-30 12:34N 41°09' W 072°14'1010.2
2014-Sep-30 11:34N 41°17' W 072°06'4 4.1
2014-Sep-30 10:34N 41°21' W 072°06'0 0.0
2014-Sep-30 00:28N 41°21' W 072°06'9 9.6
2014-Sep-29 23:33N 41°13' W 072°10'5 5.3
2014-Sep-29 22:33N 41°09' W 072°14'9 8.8
2014-Sep-29 21:34N 41°16' W 072°07'5 5.5
2014-Sep-29 20:34N 41°21' W 072°06'10 9.6
2014-Sep-29 19:34N 41°13' W 072°11'4 4.3
2014-Sep-29 18:34N 41°09' W 072°14'1110.5
2014-Sep-29 17:33N 41°18' W 072°06'4 3.8
2014-Sep-29 16:33N 41°21' W 072°06'9 9.3
2014-Sep-29 15:33N 41°13' W 072°11'5 4.7
2014-Sep-29 14:33N 41°09' W 072°14'9 8.8
2014-Sep-29 13:33N 41°16' W 072°07'5 5.4
2014-Sep-29 12:33N 41°21' W 072°06'8 8.4
2014-Sep-29 11:33N 41°13' W 072°09'6 5.7
2014-Sep-29 10:33N 41°09' W 072°14'0 0.0
2014-Sep-29 02:33N 41°09' W 072°14'10 9.7
2014-Sep-29 01:33N 41°17' W 072°06'5 4.6
2014-Sep-29 00:33N 41°21' W 072°06'1110.6
2014-Sep-28 23:34N 41°12' W 072°12'3 3.3
2014-Sep-28 22:33N 41°09' W 072°14'10 9.9
2014-Sep-28 21:34N 41°17' W 072°06'4 4.4
2014-Sep-28 20:33N 41°21' W 072°06'10 9.8
2014-Sep-28 19:34N 41°12' W 072°11'4 4.2
2014-Sep-28 18:33N 41°09' W 072°14'1010.2
2014-Sep-28 17:33N 41°17' W 072°06'4 4.1
2014-Sep-28 16:33N 41°21' W 072°06'10 9.9
2014-Sep-28 15:33N 41°13' W 072°12'4 3.9
2014-Sep-28 14:33N 41°09' W 072°14'9 9.1
2014-Sep-28 13:34N 41°16' W 072°07'5 5.1
2014-Sep-28 12:33N 41°21' W 072°06'8 8.2
2014-Sep-28 11:34N 41°14' W 072°09'6 5.8
2014-Sep-28 10:33N 41°09' W 072°14'0 0.0
2014-Sep-28 02:04N 41°09' W 072°14'4 8.4
2014-Sep-28 01:33N 41°13' W 072°11'10 9.5
2014-Sep-28 00:34N 41°21' W 072°06'8 8.4
2014-Sep-27 23:34N 41°14' W 072°10'6 5.6
2014-Sep-27 22:34N 41°09' W 072°14'9 8.6
2014-Sep-27 21:33N 41°16' W 072°07'5 5.4
2014-Sep-27 20:33N 41°21' W 072°06'9 9.1
2014-Sep-27 19:33N 41°13' W 072°10'5 4.9
2014-Sep-27 18:33N 41°09' W 072°14'9 9.4
2014-Sep-27 17:33N 41°17' W 072°07'5 4.8
2014-Sep-27 16:34N 41°21' W 072°06'9 8.8
2014-Sep-27 15:33N 41°13' W 072°10'5 5.1
2014-Sep-27 14:33N 41°09' W 072°14'8 8.1
2014-Sep-27 13:33N 41°16' W 072°08'6 6.0
2014-Sep-27 12:34N 41°21' W 072°06'9 9.2
2014-Sep-27 11:34N 41°13' W 072°11'5 4.7
2014-Sep-27 10:34N 41°09' W 072°14'0 0.0
2014-Sep-27 02:08N 41°09' W 072°14'4 7.8
2014-Sep-27 01:34N 41°13' W 072°11'9 9.4
2014-Sep-27 00:34N 41°21' W 072°06'9 9.2
2014-Sep-26 23:34N 41°13' W 072°10'5 4.8
2014-Sep-26 22:33N 41°09' W 072°14'8 8.3
2014-Sep-26 21:33N 41°16' W 072°08'6 5.8
2014-Sep-26 20:34N 41°21' W 072°06'9 9.3
2014-Sep-26 19:33N 41°13' W 072°11'5 4.6
2014-Sep-26 18:34N 41°09' W 072°14'9 9.0
2014-Sep-26 17:33N 41°16' W 072°07'5 5.2
2014-Sep-26 16:33N 41°21' W 072°06'9 8.9
2014-Sep-26 15:33N 41°13' W 072°10'5 5.2
2014-Sep-26 14:33N 41°09' W 072°14'9 9.1
2014-Sep-26 13:33N 41°16' W 072°07'5 5.1
2014-Sep-26 12:33N 41°21' W 072°05'10 9.7
2014-Sep-26 11:33N 41°13' W 072°12'4 4.1
2014-Sep-26 10:33N 41°09' W 072°14'0 0.0
2014-Sep-26 01:06N 41°09' W 072°14'2 3.4
2014-Sep-26 00:34N 41°11' W 072°13'1212.0
2014-Sep-25 23:33N 41°21' W 072°05'0 0.1
2014-Sep-25 22:33N 41°21' W 072°06'10 9.7
2014-Sep-25 21:33N 41°13' W 072°11'4 4.2
2014-Sep-25 20:34N 41°09' W 072°14'8 8.1
2014-Sep-25 19:33N 41°16' W 072°08'6 5.9
2014-Sep-25 18:33N 41°21' W 072°06'9 8.6
2014-Sep-25 17:33N 41°13' W 072°10'5 5.4
2014-Sep-25 16:33N 41°09' W 072°14'9 9.0
2014-Sep-25 15:34N 41°16' W 072°07'5 5.2
2014-Sep-25 14:34N 41°21' W 072°06'10 9.7
2014-Sep-25 13:34N 41°13' W 072°12'4 4.2
2014-Sep-25 12:34N 41°09' W 072°14'9 8.8
2014-Sep-25 11:33N 41°16' W 072°07'5 5.3
2014-Sep-25 10:33N 41°21' W 072°06'0 0.0
2014-Sep-25 01:04N 41°21' W 072°06'4 7.9
2014-Sep-25 00:34N 41°17' W 072°06'1010.3
2014-Sep-24 23:33N 41°09' W 072°14'0 0.0
2014-Sep-24 22:33N 41°09' W 072°14'10 9.5
2014-Sep-24 21:33N 41°17' W 072°07'5 4.7
2014-Sep-24 20:33N 41°21' W 072°06'9 8.9
2014-Sep-24 19:33N 41°13' W 072°10'5 5.0
2014-Sep-24 18:33N 41°09' W 072°14'9 8.8
2014-Sep-24 17:33N 41°16' W 072°07'5 5.3
2014-Sep-24 16:33N 41°21' W 072°06'9 9.3
2014-Sep-24 15:33N 41°13' W 072°11'5 4.6
2014-Sep-24 14:33N 41°09' W 072°14'9 9.2
2014-Sep-24 13:33N 41°17' W 072°07'5 4.9
2014-Sep-24 12:33N 41°21' W 072°06'9 9.1
2014-Sep-24 11:33N 41°13' W 072°11'5 4.8
2014-Sep-24 10:33N 41°09' W 072°14'0 0.0
2014-Sep-24 01:05N 41°09' W 072°14'2 3.9
2014-Sep-24 00:34N 41°11' W 072°14'1210.9
2014-Sep-23 23:28N 41°21' W 072°06'0 0.0
2014-Sep-23 22:33N 41°21' W 072°06'0 0.0
2014-Sep-23 01:07N 41°21' W 072°06'4 6.3
2014-Sep-23 00:33N 41°18' W 072°05'1111.1
2014-Sep-22 23:34N 41°09' W 072°14'0 0.1
2014-Sep-22 22:33N 41°09' W 072°14'9 9.3
2014-Sep-22 21:33N 41°16' W 072°07'5 4.9
2014-Sep-22 20:33N 41°21' W 072°06'9 8.9
2014-Sep-22 19:34N 41°13' W 072°10'5 5.1
2014-Sep-22 18:33N 41°09' W 072°14'9 9.5
2014-Sep-22 17:34N 41°16' W 072°06'5 4.9
2014-Sep-22 16:34N 41°21' W 072°06'10 9.8
2014-Sep-22 15:33N 41°13' W 072°11'4 4.0
2014-Sep-22 14:34N 41°09' W 072°14'9 9.0
2014-Sep-22 13:33N 41°16' W 072°07'5 5.2
2014-Sep-22 12:33N 41°21' W 072°06'9 9.0
2014-Sep-22 11:33N 41°13' W 072°10'5 5.0
2014-Sep-22 10:33N 41°09' W 072°14'0 0.0
2014-Sep-22 02:27N 41°09' W 072°14'7 7.4
2014-Sep-22 01:33N 41°15' W 072°09'7 7.3
2014-Sep-22 00:34N 41°21' W 072°06'1010.0
2014-Sep-21 23:33N 41°12' W 072°11'4 3.8
2014-Sep-21 22:33N 41°09' W 072°14'  

Dump ship's entire track history